This is the latest recevied weather packets stored in our database for station/object LU4EGV-13. If no packets are shown the sender has not sent any weather packets the latest 10 day(s).
| Time | Temp. | Humidity | Pressure | Rain* | Wind** | Luminosity | Snow |
|---|---|---|---|---|---|---|---|
| 1788067703 | 8.89° C | 86% | 1014.4 hPa | 0 mm | - | - | - |
| 1788067095 | 8.89° C | 85% | 1014.4 hPa | 0 mm | - | - | - |
| 1788066489 | 8.89° C | 85% | 1014.4 hPa | 0 mm | - | - | - |
| 1788065883 | 8.89° C | 85% | 1014.5 hPa | 0 mm | - | - | - |
| 1788065277 | 8.89° C | 85% | 1014.5 hPa | 0 mm | - | - | - |
| 1788064671 | 8.89° C | 83% | 1014.6 hPa | 0 mm | - | - | - |
| 1788064066 | 9.44° C | 83% | 1014.6 hPa | 0 mm | - | - | - |
| 1788063474 | 8.89° C | 83% | 1014.6 hPa | 0 mm | - | - | - |
| 1788062854 | 9.44° C | 83% | 1014.6 hPa | 0 mm | - | - | - |
| 1788062253 | 9.44° C | 83% | 1014.4 hPa | 0 mm | - | - | - |
| 1788061643 | 10° C | 82% | 1014.4 hPa | 0 mm | - | - | - |
| 1788061033 | 10° C | 81% | 1014.4 hPa | 0 mm | - | - | - |
| 1788059216 | 10° C | 79% | 1014.5 hPa | 0 mm | - | - | - |
| 1788058609 | 10.56° C | 79% | 1014.5 hPa | 0 mm | - | - | - |
| 1788040422 | 16.11° C | 46% | 1013.3 hPa | 0 mm | - | - | - |
| 1788039210 | 16.67° C | 45% | 1012.9 hPa | 0 mm | - | - | - |
| 1788038604 | 17.22° C | 42% | 1012.9 hPa | 0 mm | - | - | - |
| 1788037391 | 19.44° C | 37% | 1012.8 hPa | 0 mm | - | - | - |
| 1788036799 | 20° C | 35% | 1012.7 hPa | 0 mm | - | - | - |
| 1788034962 | 20.56° C | 34% | 1012.5 hPa | 0 mm | - | - | - |
| 1788033751 | 20.56° C | 34% | 1012.4 hPa | 0 mm | - | - | - |
| 1788033145 | 21.11° C | 33% | 1012.4 hPa | 0 mm | - | - | - |
| 1788031932 | 21.11° C | 34% | 1012.2 hPa | 0 mm | - | - | - |
| 1788031326 | 21.11° C | 34% | 1012 hPa | 0 mm | - | - | - |
| 1788030114 | 21.67° C | 35% | 1012.2 hPa | 0 mm | - | - | - |
* Rain latest hour (hover to see other rain measurements)
** Current wind speed in m/s (hover to see current wind gust speed)